sensor_id;sensor_type;location;lat;lon;timestamp;temperature;humidity
11089;DHT22;5598;48.648;8.908;2022-12-20T00:01:06;3.80;99.90
11089;DHT22;5598;48.648;8.908;2022-12-20T00:03:33;3.80;99.90
11089;DHT22;5598;48.648;8.908;2022-12-20T00:05:59;3.70;99.90
11089;DHT22;5598;48.648;8.908;2022-12-20T00:08:28;3.70;99.90
11089;DHT22;5598;48.648;8.908;2022-12-20T00:10:54;3.80;99.90
11089;DHT22;5598;48.648;8.908;2022-12-20T00:13:21;3.80;99.90
11089;DHT22;5598;48.648;8.908;2022-12-20T00:15:48;3.80;99.90
11089;DHT22;5598;48.648;8.908;2022-12-20T00:18:15;3.80;99.90
11089;DHT22;5598;48.648;8.908;2022-12-20T00:20:41;3.80;99.90
11089;DHT22;5598;48.648;8.908;2022-12-20T00:23:08;3.80;99.90
11089;DHT22;5598;48.648;8.908;2022-12-20T00:25:36;3.80;99.90
11089;DHT22;5598;48.648;8.908;2022-12-20T00:28:03;3.90;99.90
11089;DHT22;5598;48.648;8.908;2022-12-20T00:30:30;3.90;99.90
11089;DHT22;5598;48.648;8.908;2022-12-20T00:32:57;3.90;99.90
11089;DHT22;5598;48.648;8.908;2022-12-20T00:35:24;3.80;99.90
11089;DHT22;5598;48.648;8.908;2022-12-20T00:37:50;3.80;99.90
11089;DHT22;5598;48.648;8.908;2022-12-20T00:40:17;3.90;99.90
11089;DHT22;5598;48.648;8.908;2022-12-20T00:42:45;3.80;99.90
11089;DHT22;5598;48.648;8.908;2022-12-20T00:45:12;4.00;99.90
11089;DHT22;5598;48.648;8.908;2022-12-20T00:47:39;4.00;99.90
11089;DHT22;5598;48.648;8.908;2022-12-20T00:50:07;4.00;99.90
11089;DHT22;5598;48.648;8.908;2022-12-20T00:52:33;4.10;99.90
11089;DHT22;5598;48.648;8.908;2022-12-20T00:55:00;4.10;99.90
11089;DHT22;5598;48.648;8.908;2022-12-20T00:57:27;4.00;99.90
11089;DHT22;5598;48.648;8.908;2022-12-20T00:59:55;4.00;99.90
11089;DHT22;5598;48.648;8.908;2022-12-20T01:02:22;4.00;99.90
11089;DHT22;5598;48.648;8.908;2022-12-20T01:04:49;4.00;99.90
11089;DHT22;5598;48.648;8.908;2022-12-20T01:07:15;4.00;99.90
11089;DHT22;5598;48.648;8.908;2022-12-20T01:09:42;4.00;99.90
11089;DHT22;5598;48.648;8.908;2022-12-20T01:12:09;4.00;99.90
11089;DHT22;5598;48.648;8.908;2022-12-20T01:14:36;4.00;99.90
11089;DHT22;5598;48.648;8.908;2022-12-20T01:17:04;4.00;99.90
11089;DHT22;5598;48.648;8.908;2022-12-20T01:19:31;4.00;99.90
11089;DHT22;5598;48.648;8.908;2022-12-20T01:21:58;3.90;99.90
11089;DHT22;5598;48.648;8.908;2022-12-20T01:24:25;4.00;99.90
11089;DHT22;5598;48.648;8.908;2022-12-20T01:26:52;4.00;99.90
11089;DHT22;5598;48.648;8.908;2022-12-20T01:29:19;3.90;99.90
11089;DHT22;5598;48.648;8.908;2022-12-20T01:31:46;4.00;99.90
11089;DHT22;5598;48.648;8.908;2022-12-20T01:34:14;4.00;99.90
11089;DHT22;5598;48.648;8.908;2022-12-20T01:36:40;4.00;99.90
11089;DHT22;5598;48.648;8.908;2022-12-20T01:39:10;4.00;99.90
11089;DHT22;5598;48.648;8.908;2022-12-20T01:41:38;3.90;99.90
11089;DHT22;5598;48.648;8.908;2022-12-20T01:44:47;3.80;99.90
11089;DHT22;5598;48.648;8.908;2022-12-20T01:46:53;3.80;99.90
11089;DHT22;5598;48.648;8.908;2022-12-20T01:49:25;3.80;99.90
11089;DHT22;5598;48.648;8.908;2022-12-20T01:51:59;3.80;99.90
11089;DHT22;5598;48.648;8.908;2022-12-20T01:54:30;3.80;99.90
11089;DHT22;5598;48.648;8.908;2022-12-20T01:57:01;3.80;99.90
11089;DHT22;5598;48.648;8.908;2022-12-20T01:59:30;3.80;99.90
11089;DHT22;5598;48.648;8.908;2022-12-20T02:02:02;3.90;99.90
11089;DHT22;5598;48.648;8.908;2022-12-20T02:04:31;3.80;99.90
11089;DHT22;5598;48.648;8.908;2022-12-20T02:06:59;3.80;99.90
11089;DHT22;5598;48.648;8.908;2022-12-20T02:09:26;3.70;99.90
11089;DHT22;5598;48.648;8.908;2022-12-20T02:12:03;3.60;99.90
11089;DHT22;5598;48.648;8.908;2022-12-20T02:14:45;3.60;99.90
11089;DHT22;5598;48.648;8.908;2022-12-20T02:17:25;3.60;99.90
11089;DHT22;5598;48.648;8.908;2022-12-20T02:20:29;3.60;99.90
11089;DHT22;5598;48.648;8.908;2022-12-20T02:23:21;3.60;99.90
11089;DHT22;5598;48.648;8.908;2022-12-20T02:26:03;3.50;99.90
11089;DHT22;5598;48.648;8.908;2022-12-20T02:29:01;3.40;99.90
11089;DHT22;5598;48.648;8.908;2022-12-20T02:31:39;3.30;99.90
11089;DHT22;5598;48.648;8.908;2022-12-20T02:34:08;3.30;99.90
11089;DHT22;5598;48.648;8.908;2022-12-20T02:36:36;3.30;99.90
11089;DHT22;5598;48.648;8.908;2022-12-20T02:39:04;3.40;99.90
11089;DHT22;5598;48.648;8.908;2022-12-20T02:41:32;3.40;99.90
11089;DHT22;5598;48.648;8.908;2022-12-20T02:44:03;3.40;99.90
11089;DHT22;5598;48.648;8.908;2022-12-20T02:46:50;3.40;99.90
11089;DHT22;5598;48.648;8.908;2022-12-20T02:49:20;3.30;99.90
11089;DHT22;5598;48.648;8.908;2022-12-20T02:51:50;3.30;99.90
11089;DHT22;5598;48.648;8.908;2022-12-20T02:54:18;3.30;99.90
11089;DHT22;5598;48.648;8.908;2022-12-20T02:56:49;3.30;99.90
11089;DHT22;5598;48.648;8.908;2022-12-20T02:59:20;3.30;99.90
11089;DHT22;5598;48.648;8.908;2022-12-20T03:01:51;3.30;99.90
11089;DHT22;5598;48.648;8.908;2022-12-20T03:04:22;3.30;99.90
11089;DHT22;5598;48.648;8.908;2022-12-20T03:06:57;3.30;99.90
11089;DHT22;5598;48.648;8.908;2022-12-20T03:09:24;3.30;99.90
11089;DHT22;5598;48.648;8.908;2022-12-20T03:11:51;3.40;99.90
11089;DHT22;5598;48.648;8.908;2022-12-20T03:14:18;3.50;99.90
11089;DHT22;5598;48.648;8.908;2022-12-20T03:16:45;3.50;99.90
11089;DHT22;5598;48.648;8.908;2022-12-20T03:19:14;3.60;99.90
11089;DHT22;5598;48.648;8.908;2022-12-20T03:21:41;3.70;99.90
11089;DHT22;5598;48.648;8.908;2022-12-20T03:24:08;3.60;99.90
11089;DHT22;5598;48.648;8.908;2022-12-20T03:26:38;3.70;99.90
11089;DHT22;5598;48.648;8.908;2022-12-20T03:29:05;3.80;99.90
11089;DHT22;5598;48.648;8.908;2022-12-20T03:31:32;3.80;99.90
11089;DHT22;5598;48.648;8.908;2022-12-20T03:33:59;3.70;99.90
11089;DHT22;5598;48.648;8.908;2022-12-20T03:36:27;3.80;99.90
11089;DHT22;5598;48.648;8.908;2022-12-20T03:38:54;3.90;99.90
11089;DHT22;5598;48.648;8.908;2022-12-20T03:41:22;3.90;99.90
11089;DHT22;5598;48.648;8.908;2022-12-20T03:43:49;4.00;99.90
11089;DHT22;5598;48.648;8.908;2022-12-20T03:46:16;4.00;99.90
11089;DHT22;5598;48.648;8.908;2022-12-20T03:48:43;4.00;99.90
11089;DHT22;5598;48.648;8.908;2022-12-20T03:51:10;4.00;99.90
11089;DHT22;5598;48.648;8.908;2022-12-20T03:53:38;4.10;99.90
11089;DHT22;5598;48.648;8.908;2022-12-20T03:56:05;4.00;99.90
11089;DHT22;5598;48.648;8.908;2022-12-20T03:58:32;4.10;99.90
11089;DHT22;5598;48.648;8.908;2022-12-20T04:00:59;4.10;99.90
11089;DHT22;5598;48.648;8.908;2022-12-20T04:03:26;4.10;99.90
11089;DHT22;5598;48.648;8.908;2022-12-20T04:05:53;4.10;99.90
11089;DHT22;5598;48.648;8.908;2022-12-20T04:08:20;4.00;99.90
11089;DHT22;5598;48.648;8.908;2022-12-20T04:10:48;3.90;99.90
11089;DHT22;5598;48.648;8.908;2022-12-20T04:13:32;3.90;99.90
11089;DHT22;5598;48.648;8.908;2022-12-20T04:15:59;3.80;99.90
11089;DHT22;5598;48.648;8.908;2022-12-20T04:18:25;3.70;99.90
11089;DHT22;5598;48.648;8.908;2022-12-20T04:20:53;3.80;99.90
11089;DHT22;5598;48.648;8.908;2022-12-20T04:23:20;3.70;99.90
11089;DHT22;5598;48.648;8.908;2022-12-20T04:25:48;3.70;99.90
11089;DHT22;5598;48.648;8.908;2022-12-20T04:28:14;3.80;99.90
11089;DHT22;5598;48.648;8.908;2022-12-20T04:30:41;3.80;99.90
11089;DHT22;5598;48.648;8.908;2022-12-20T04:33:08;3.90;99.90
11089;DHT22;5598;48.648;8.908;2022-12-20T04:35:35;4.00;99.90
11089;DHT22;5598;48.648;8.908;2022-12-20T04:38:02;4.00;99.90
11089;DHT22;5598;48.648;8.908;2022-12-20T04:40:29;4.00;99.90
11089;DHT22;5598;48.648;8.908;2022-12-20T04:42:57;3.90;99.90
11089;DHT22;5598;48.648;8.908;2022-12-20T04:45:24;3.90;99.90
11089;DHT22;5598;48.648;8.908;2022-12-20T04:47:51;3.80;99.90
11089;DHT22;5598;48.648;8.908;2022-12-20T04:50:18;3.80;99.90
11089;DHT22;5598;48.648;8.908;2022-12-20T04:52:44;3.80;99.90
11089;DHT22;5598;48.648;8.908;2022-12-20T04:55:29;3.80;99.90
11089;DHT22;5598;48.648;8.908;2022-12-20T04:57:57;3.80;99.90
11089;DHT22;5598;48.648;8.908;2022-12-20T05:00:23;3.80;99.90
11089;DHT22;5598;48.648;8.908;2022-12-20T05:02:50;3.80;99.90
11089;DHT22;5598;48.648;8.908;2022-12-20T05:05:17;3.90;99.90
11089;DHT22;5598;48.648;8.908;2022-12-20T05:07:44;4.00;99.90
11089;DHT22;5598;48.648;8.908;2022-12-20T05:10:11;4.20;99.90
11089;DHT22;5598;48.648;8.908;2022-12-20T05:12:38;4.30;99.90
11089;DHT22;5598;48.648;8.908;2022-12-20T05:15:07;4.40;99.90
11089;DHT22;5598;48.648;8.908;2022-12-20T05:17:34;4.50;99.90
11089;DHT22;5598;48.648;8.908;2022-12-20T05:20:01;4.60;99.90
11089;DHT22;5598;48.648;8.908;2022-12-20T05:22:28;4.70;99.90
11089;DHT22;5598;48.648;8.908;2022-12-20T05:25:09;4.70;99.90
11089;DHT22;5598;48.648;8.908;2022-12-20T05:27:54;4.70;99.90
11089;DHT22;5598;48.648;8.908;2022-12-20T05:30:24;4.70;99.90
11089;DHT22;5598;48.648;8.908;2022-12-20T05:32:51;4.70;99.90
11089;DHT22;5598;48.648;8.908;2022-12-20T05:35:18;4.70;99.90
11089;DHT22;5598;48.648;8.908;2022-12-20T05:37:45;4.70;99.90
11089;DHT22;5598;48.648;8.908;2022-12-20T05:40:12;4.70;99.90
11089;DHT22;5598;48.648;8.908;2022-12-20T05:42:40;4.70;99.90
11089;DHT22;5598;48.648;8.908;2022-12-20T05:45:07;4.70;99.90
11089;DHT22;5598;48.648;8.908;2022-12-20T05:47:37;4.70;99.90
11089;DHT22;5598;48.648;8.908;2022-12-20T05:50:04;4.60;99.90
11089;DHT22;5598;48.648;8.908;2022-12-20T05:52:31;4.60;99.90
11089;DHT22;5598;48.648;8.908;2022-12-20T05:54:58;4.60;99.90
11089;DHT22;5598;48.648;8.908;2022-12-20T05:57:25;4.60;99.90
11089;DHT22;5598;48.648;8.908;2022-12-20T05:59:52;4.60;99.90
11089;DHT22;5598;48.648;8.908;2022-12-20T06:02:19;4.60;99.90
11089;DHT22;5598;48.648;8.908;2022-12-20T06:04:47;4.70;99.90
11089;DHT22;5598;48.648;8.908;2022-12-20T06:07:14;4.70;99.90
11089;DHT22;5598;48.648;8.908;2022-12-20T06:09:40;4.80;99.90
11089;DHT22;5598;48.648;8.908;2022-12-20T06:12:07;4.90;99.90
11089;DHT22;5598;48.648;8.908;2022-12-20T06:14:34;5.00;99.90
11089;DHT22;5598;48.648;8.908;2022-12-20T06:17:01;5.10;99.90
11089;DHT22;5598;48.648;8.908;2022-12-20T06:19:28;5.30;99.90
11089;DHT22;5598;48.648;8.908;2022-12-20T06:21:56;5.20;99.90
11089;DHT22;5598;48.648;8.908;2022-12-20T06:24:23;5.30;99.90
11089;DHT22;5598;48.648;8.908;2022-12-20T06:26:51;5.30;99.90
11089;DHT22;5598;48.648;8.908;2022-12-20T06:29:18;5.40;99.90
11089;DHT22;5598;48.648;8.908;2022-12-20T06:31:45;5.40;99.90
11089;DHT22;5598;48.648;8.908;2022-12-20T06:34:12;5.60;99.90
11089;DHT22;5598;48.648;8.908;2022-12-20T06:36:39;5.70;99.90
11089;DHT22;5598;48.648;8.908;2022-12-20T06:39:31;5.70;99.90
11089;DHT22;5598;48.648;8.908;2022-12-20T06:41:58;5.70;99.90
11089;DHT22;5598;48.648;8.908;2022-12-20T06:44:25;5.70;99.90
11089;DHT22;5598;48.648;8.908;2022-12-20T06:46:52;5.70;99.90
11089;DHT22;5598;48.648;8.908;2022-12-20T06:49:18;5.70;99.90
11089;DHT22;5598;48.648;8.908;2022-12-20T06:51:46;5.70;99.90
11089;DHT22;5598;48.648;8.908;2022-12-20T06:54:13;5.70;99.90
11089;DHT22;5598;48.648;8.908;2022-12-20T06:56:41;5.70;99.90
11089;DHT22;5598;48.648;8.908;2022-12-20T06:59:09;5.70;99.90
11089;DHT22;5598;48.648;8.908;2022-12-20T07:01:35;5.70;99.90
11089;DHT22;5598;48.648;8.908;2022-12-20T07:04:02;5.70;99.90
11089;DHT22;5598;48.648;8.908;2022-12-20T07:06:29;5.70;99.90
11089;DHT22;5598;48.648;8.908;2022-12-20T07:08:57;5.80;99.90
11089;DHT22;5598;48.648;8.908;2022-12-20T07:11:23;5.90;99.90
11089;DHT22;5598;48.648;8.908;2022-12-20T07:13:55;5.80;99.90
11089;DHT22;5598;48.648;8.908;2022-12-20T07:16:22;5.70;99.90
11089;DHT22;5598;48.648;8.908;2022-12-20T07:18:49;5.70;99.90
11089;DHT22;5598;48.648;8.908;2022-12-20T07:21:18;5.70;99.90
11089;DHT22;5598;48.648;8.908;2022-12-20T07:23:46;5.70;99.90
11089;DHT22;5598;48.648;8.908;2022-12-20T07:26:14;5.60;99.90
11089;DHT22;5598;48.648;8.908;2022-12-20T07:28:42;5.60;99.90
11089;DHT22;5598;48.648;8.908;2022-12-20T07:31:10;5.60;99.90
11089;DHT22;5598;48.648;8.908;2022-12-20T07:33:37;5.60;99.90
11089;DHT22;5598;48.648;8.908;2022-12-20T07:36:06;5.60;99.90
11089;DHT22;5598;48.648;8.908;2022-12-20T07:38:33;5.70;99.90
11089;DHT22;5598;48.648;8.908;2022-12-20T07:41:05;5.70;99.90
11089;DHT22;5598;48.648;8.908;2022-12-20T07:43:32;5.70;99.90
11089;DHT22;5598;48.648;8.908;2022-12-20T07:45:59;5.70;99.90
11089;DHT22;5598;48.648;8.908;2022-12-20T07:48:27;5.70;99.90
11089;DHT22;5598;48.648;8.908;2022-12-20T07:50:58;5.70;99.90
11089;DHT22;5598;48.648;8.908;2022-12-20T07:53:28;5.70;99.90
11089;DHT22;5598;48.648;8.908;2022-12-20T07:55:57;5.60;99.90
11089;DHT22;5598;48.648;8.908;2022-12-20T07:58:26;5.70;99.90
11089;DHT22;5598;48.648;8.908;2022-12-20T08:00:54;5.70;99.90
11089;DHT22;5598;48.648;8.908;2022-12-20T08:03:24;5.60;99.90
11089;DHT22;5598;48.648;8.908;2022-12-20T08:05:58;5.70;99.90
11089;DHT22;5598;48.648;8.908;2022-12-20T08:08:28;5.80;99.90
11089;DHT22;5598;48.648;8.908;2022-12-20T08:10:55;5.80;99.90
11089;DHT22;5598;48.648;8.908;2022-12-20T08:13:22;5.80;99.90
11089;DHT22;5598;48.648;8.908;2022-12-20T08:15:49;5.90;99.90
11089;DHT22;5598;48.648;8.908;2022-12-20T08:18:16;5.80;99.90
11089;DHT22;5598;48.648;8.908;2022-12-20T08:20:42;5.90;99.90
11089;DHT22;5598;48.648;8.908;2022-12-20T08:23:11;5.90;99.90
11089;DHT22;5598;48.648;8.908;2022-12-20T08:25:37;5.90;99.90
11089;DHT22;5598;48.648;8.908;2022-12-20T08:28:04;5.90;99.90
11089;DHT22;5598;48.648;8.908;2022-12-20T08:30:31;5.90;99.90
11089;DHT22;5598;48.648;8.908;2022-12-20T08:32:58;5.90;99.90
11089;DHT22;5598;48.648;8.908;2022-12-20T08:35:24;6.00;99.90
11089;DHT22;5598;48.648;8.908;2022-12-20T08:37:51;5.80;99.90
11089;DHT22;5598;48.648;8.908;2022-12-20T08:40:20;6.00;99.90
11089;DHT22;5598;48.648;8.908;2022-12-20T08:42:46;6.10;99.90
11089;DHT22;5598;48.648;8.908;2022-12-20T08:45:14;6.20;99.90
11089;DHT22;5598;48.648;8.908;2022-12-20T08:47:41;6.20;99.90
11089;DHT22;5598;48.648;8.908;2022-12-20T08:50:08;6.20;99.90
11089;DHT22;5598;48.648;8.908;2022-12-20T08:52:35;6.20;99.90
11089;DHT22;5598;48.648;8.908;2022-12-20T08:55:01;6.20;99.90
11089;DHT22;5598;48.648;8.908;2022-12-20T08:57:30;6.20;99.90
11089;DHT22;5598;48.648;8.908;2022-12-20T08:59:56;6.20;99.90
11089;DHT22;5598;48.648;8.908;2022-12-20T09:02:23;6.20;99.90
11089;DHT22;5598;48.648;8.908;2022-12-20T09:04:50;6.20;99.90
11089;DHT22;5598;48.648;8.908;2022-12-20T09:07:17;6.20;99.90
11089;DHT22;5598;48.648;8.908;2022-12-20T09:09:45;6.20;99.90
11089;DHT22;5598;48.648;8.908;2022-12-20T09:12:12;6.10;99.90
11089;DHT22;5598;48.648;8.908;2022-12-20T09:14:40;6.10;99.90
11089;DHT22;5598;48.648;8.908;2022-12-20T09:17:07;6.20;99.90
11089;DHT22;5598;48.648;8.908;2022-12-20T09:19:34;6.10;99.90
11089;DHT22;5598;48.648;8.908;2022-12-20T09:22:00;6.10;99.90
11089;DHT22;5598;48.648;8.908;2022-12-20T09:24:28;6.00;99.90
11089;DHT22;5598;48.648;8.908;2022-12-20T09:26:54;6.00;99.90
11089;DHT22;5598;48.648;8.908;2022-12-20T09:29:21;6.00;99.90
11089;DHT22;5598;48.648;8.908;2022-12-20T09:31:49;6.00;99.90
11089;DHT22;5598;48.648;8.908;2022-12-20T09:34:16;6.10;99.90
11089;DHT22;5598;48.648;8.908;2022-12-20T09:36:43;6.10;99.90
11089;DHT22;5598;48.648;8.908;2022-12-20T09:39:10;6.30;99.90
11089;DHT22;5598;48.648;8.908;2022-12-20T09:41:39;6.60;99.90
11089;DHT22;5598;48.648;8.908;2022-12-20T09:44:12;6.90;99.90
11089;DHT22;5598;48.648;8.908;2022-12-20T09:46:40;7.50;99.90
11089;DHT22;5598;48.648;8.908;2022-12-20T09:49:11;7.50;99.90
11089;DHT22;5598;48.648;8.908;2022-12-20T09:51:59;7.40;99.90
11089;DHT22;5598;48.648;8.908;2022-12-20T09:54:34;7.40;99.90
11089;DHT22;5598;48.648;8.908;2022-12-20T09:57:14;7.40;99.90
11089;DHT22;5598;48.648;8.908;2022-12-20T09:59:44;7.50;99.90
11089;DHT22;5598;48.648;8.908;2022-12-20T10:02:12;7.50;99.90
11089;DHT22;5598;48.648;8.908;2022-12-20T10:04:42;7.50;99.90
11089;DHT22;5598;48.648;8.908;2022-12-20T10:07:19;7.60;99.90
11089;DHT22;5598;48.648;8.908;2022-12-20T10:10:02;7.50;99.90
11089;DHT22;5598;48.648;8.908;2022-12-20T10:12:37;7.40;99.90
11089;DHT22;5598;48.648;8.908;2022-12-20T10:15:16;7.40;99.90
11089;DHT22;5598;48.648;8.908;2022-12-20T10:17:53;7.30;99.90
11089;DHT22;5598;48.648;8.908;2022-12-20T10:20:40;7.20;99.90
11089;DHT22;5598;48.648;8.908;2022-12-20T10:23:16;7.30;99.90
11089;DHT22;5598;48.648;8.908;2022-12-20T10:25:49;7.20;99.90
11089;DHT22;5598;48.648;8.908;2022-12-20T10:28:16;7.10;99.90
11089;DHT22;5598;48.648;8.908;2022-12-20T10:30:45;7.10;99.90
11089;DHT22;5598;48.648;8.908;2022-12-20T10:33:19;7.00;99.90
11089;DHT22;5598;48.648;8.908;2022-12-20T10:35:48;7.00;99.90
11089;DHT22;5598;48.648;8.908;2022-12-20T10:38:16;6.90;99.90
11089;DHT22;5598;48.648;8.908;2022-12-20T10:40:47;6.90;99.90
11089;DHT22;5598;48.648;8.908;2022-12-20T10:43:15;6.80;99.90
11089;DHT22;5598;48.648;8.908;2022-12-20T10:45:45;6.70;99.90
11089;DHT22;5598;48.648;8.908;2022-12-20T10:48:28;6.70;99.90
11089;DHT22;5598;48.648;8.908;2022-12-20T10:50:59;6.80;99.90
11089;DHT22;5598;48.648;8.908;2022-12-20T10:53:26;6.70;99.90
11089;DHT22;5598;48.648;8.908;2022-12-20T10:56:03;6.70;99.90
11089;DHT22;5598;48.648;8.908;2022-12-20T10:58:35;6.70;99.90
11089;DHT22;5598;48.648;8.908;2022-12-20T11:01:05;6.70;99.90
11089;DHT22;5598;48.648;8.908;2022-12-20T11:03:55;6.60;99.90
11089;DHT22;5598;48.648;8.908;2022-12-20T11:06:25;6.70;99.90
11089;DHT22;5598;48.648;8.908;2022-12-20T11:08:52;6.80;99.90
11089;DHT22;5598;48.648;8.908;2022-12-20T11:11:21;6.90;99.90
11089;DHT22;5598;48.648;8.908;2022-12-20T11:13:50;7.00;99.90
11089;DHT22;5598;48.648;8.908;2022-12-20T11:16:35;7.10;99.90
11089;DHT22;5598;48.648;8.908;2022-12-20T11:19:26;7.20;99.90
11089;DHT22;5598;48.648;8.908;2022-12-20T11:22:00;7.20;99.90
11089;DHT22;5598;48.648;8.908;2022-12-20T11:24:34;7.20;99.90
11089;DHT22;5598;48.648;8.908;2022-12-20T11:27:12;7.20;99.90
11089;DHT22;5598;48.648;8.908;2022-12-20T11:30:00;7.10;99.90
11089;DHT22;5598;48.648;8.908;2022-12-20T11:33:14;7.20;99.90
11089;DHT22;5598;48.648;8.908;2022-12-20T11:35:50;7.10;99.90
11089;DHT22;5598;48.648;8.908;2022-12-20T11:38:28;7.10;99.90
11089;DHT22;5598;48.648;8.908;2022-12-20T11:41:09;7.10;99.90
11089;DHT22;5598;48.648;8.908;2022-12-20T11:43:51;7.20;99.90
11089;DHT22;5598;48.648;8.908;2022-12-20T11:46:29;7.20;99.90
11089;DHT22;5598;48.648;8.908;2022-12-20T11:49:18;7.30;99.90
11089;DHT22;5598;48.648;8.908;2022-12-20T11:51:47;7.40;99.90
11089;DHT22;5598;48.648;8.908;2022-12-20T11:54:20;7.50;99.90
11089;DHT22;5598;48.648;8.908;2022-12-20T11:56:49;7.60;99.90
11089;DHT22;5598;48.648;8.908;2022-12-20T11:59:22;7.60;99.90
11089;DHT22;5598;48.648;8.908;2022-12-20T12:01:54;7.60;99.90
11089;DHT22;5598;48.648;8.908;2022-12-20T12:04:28;7.60;99.90
11089;DHT22;5598;48.648;8.908;2022-12-20T12:07:00;7.70;99.90
11089;DHT22;5598;48.648;8.908;2022-12-20T12:09:31;7.70;99.90
11089;DHT22;5598;48.648;8.908;2022-12-20T12:12:02;7.80;99.90
11089;DHT22;5598;48.648;8.908;2022-12-20T12:14:40;7.80;99.90
11089;DHT22;5598;48.648;8.908;2022-12-20T12:17:12;7.90;99.90
11089;DHT22;5598;48.648;8.908;2022-12-20T12:19:48;8.00;99.90
11089;DHT22;5598;48.648;8.908;2022-12-20T12:22:20;8.00;99.90
11089;DHT22;5598;48.648;8.908;2022-12-20T12:24:51;7.90;99.90
11089;DHT22;5598;48.648;8.908;2022-12-20T12:27:25;7.90;99.90
11089;DHT22;5598;48.648;8.908;2022-12-20T12:29:53;7.90;99.90
11089;DHT22;5598;48.648;8.908;2022-12-20T12:32:25;7.90;99.90
11089;DHT22;5598;48.648;8.908;2022-12-20T12:35:05;7.90;99.90
11089;DHT22;5598;48.648;8.908;2022-12-20T12:38:02;8.00;99.90
11089;DHT22;5598;48.648;8.908;2022-12-20T12:40:54;7.90;99.90
11089;DHT22;5598;48.648;8.908;2022-12-20T12:43:43;8.00;99.90
11089;DHT22;5598;48.648;8.908;2022-12-20T12:46:12;7.90;99.90
11089;DHT22;5598;48.648;8.908;2022-12-20T12:48:44;7.90;99.90
11089;DHT22;5598;48.648;8.908;2022-12-20T12:51:18;8.00;99.90
11089;DHT22;5598;48.648;8.908;2022-12-20T12:53:51;8.00;99.90
11089;DHT22;5598;48.648;8.908;2022-12-20T12:56:38;8.00;99.90
11089;DHT22;5598;48.648;8.908;2022-12-20T13:02:34;8.10;99.90
11089;DHT22;5598;48.648;8.908;2022-12-20T13:05:34;8.10;99.90
11089;DHT22;5598;48.648;8.908;2022-12-20T13:08:03;8.10;99.90
11089;DHT22;5598;48.648;8.908;2022-12-20T13:10:59;8.10;99.90
11089;DHT22;5598;48.648;8.908;2022-12-20T13:13:27;8.10;99.90
11089;DHT22;5598;48.648;8.908;2022-12-20T13:16:11;8.00;99.90
11089;DHT22;5598;48.648;8.908;2022-12-20T13:19:03;8.00;99.90
11089;DHT22;5598;48.648;8.908;2022-12-20T13:21:40;7.90;99.90
11089;DHT22;5598;48.648;8.908;2022-12-20T13:24:38;7.70;99.90
11089;DHT22;5598;48.648;8.908;2022-12-20T13:27:28;7.70;99.90
11089;DHT22;5598;48.648;8.908;2022-12-20T13:35:58;7.80;99.90
11089;DHT22;5598;48.648;8.908;2022-12-20T13:41:32;7.80;99.90
11089;DHT22;5598;48.648;8.908;2022-12-20T13:46:57;7.90;99.90
11089;DHT22;5598;48.648;8.908;2022-12-20T13:49:28;8.00;99.90
11089;DHT22;5598;48.648;8.908;2022-12-20T13:52:23;8.00;99.90
11089;DHT22;5598;48.648;8.908;2022-12-20T13:54:53;8.00;99.90
11089;DHT22;5598;48.648;8.908;2022-12-20T13:57:26;8.10;99.90
11089;DHT22;5598;48.648;8.908;2022-12-20T13:59:56;8.10;99.90
11089;DHT22;5598;48.648;8.908;2022-12-20T14:02:28;8.00;99.90
11089;DHT22;5598;48.648;8.908;2022-12-20T14:04:58;8.00;99.90
11089;DHT22;5598;48.648;8.908;2022-12-20T14:07:27;8.00;99.90
11089;DHT22;5598;48.648;8.908;2022-12-20T14:09:57;8.10;99.90
11089;DHT22;5598;48.648;8.908;2022-12-20T14:12:26;8.20;99.90
11089;DHT22;5598;48.648;8.908;2022-12-20T14:14:54;8.20;99.90
11089;DHT22;5598;48.648;8.908;2022-12-20T14:17:23;8.10;99.90
11089;DHT22;5598;48.648;8.908;2022-12-20T14:20:13;8.10;99.90
11089;DHT22;5598;48.648;8.908;2022-12-20T14:22:44;8.10;99.90
11089;DHT22;5598;48.648;8.908;2022-12-20T14:25:15;8.10;99.90
11089;DHT22;5598;48.648;8.908;2022-12-20T14:27:44;8.10;99.90
11089;DHT22;5598;48.648;8.908;2022-12-20T14:30:29;8.00;99.90
11089;DHT22;5598;48.648;8.908;2022-12-20T14:32:57;8.00;99.90
11089;DHT22;5598;48.648;8.908;2022-12-20T14:35:25;7.90;99.90
11089;DHT22;5598;48.648;8.908;2022-12-20T14:37:53;7.90;99.90
11089;DHT22;5598;48.648;8.908;2022-12-20T14:40:21;7.90;99.90
11089;DHT22;5598;48.648;8.908;2022-12-20T14:42:50;7.90;99.90
11089;DHT22;5598;48.648;8.908;2022-12-20T14:45:21;7.90;99.90
11089;DHT22;5598;48.648;8.908;2022-12-20T14:47:58;7.80;99.90
11089;DHT22;5598;48.648;8.908;2022-12-20T14:50:29;7.60;99.90
11089;DHT22;5598;48.648;8.908;2022-12-20T14:52:56;7.60;99.90
11089;DHT22;5598;48.648;8.908;2022-12-20T14:55:27;7.40;99.90
11089;DHT22;5598;48.648;8.908;2022-12-20T14:57:57;7.40;99.90
11089;DHT22;5598;48.648;8.908;2022-12-20T15:00:26;7.40;99.90
11089;DHT22;5598;48.648;8.908;2022-12-20T15:02:59;7.30;99.90
11089;DHT22;5598;48.648;8.908;2022-12-20T15:05:46;7.40;99.90
11089;DHT22;5598;48.648;8.908;2022-12-20T15:08:16;7.40;99.90
11089;DHT22;5598;48.648;8.908;2022-12-20T15:10:52;7.50;99.90
11089;DHT22;5598;48.648;8.908;2022-12-20T15:13:23;7.40;99.90
11089;DHT22;5598;48.648;8.908;2022-12-20T15:15:51;7.40;99.90
11089;DHT22;5598;48.648;8.908;2022-12-20T15:18:19;7.40;99.90
11089;DHT22;5598;48.648;8.908;2022-12-20T15:20:50;7.40;99.90
11089;DHT22;5598;48.648;8.908;2022-12-20T15:23:20;7.40;99.90
11089;DHT22;5598;48.648;8.908;2022-12-20T15:25:48;7.50;99.90
11089;DHT22;5598;48.648;8.908;2022-12-20T15:28:16;7.40;99.90
11089;DHT22;5598;48.648;8.908;2022-12-20T15:30:46;7.50;99.90
11089;DHT22;5598;48.648;8.908;2022-12-20T15:33:16;7.50;99.90
11089;DHT22;5598;48.648;8.908;2022-12-20T15:35:43;7.40;99.90
11089;DHT22;5598;48.648;8.908;2022-12-20T15:38:15;7.50;99.90
11089;DHT22;5598;48.648;8.908;2022-12-20T15:40:44;7.50;99.90
11089;DHT22;5598;48.648;8.908;2022-12-20T15:43:12;7.50;99.90
11089;DHT22;5598;48.648;8.908;2022-12-20T15:45:40;7.60;99.90
11089;DHT22;5598;48.648;8.908;2022-12-20T15:48:13;7.50;99.90
11089;DHT22;5598;48.648;8.908;2022-12-20T15:50:42;7.60;99.90
11089;DHT22;5598;48.648;8.908;2022-12-20T15:53:12;7.50;99.90
11089;DHT22;5598;48.648;8.908;2022-12-20T15:55:39;7.50;99.90
11089;DHT22;5598;48.648;8.908;2022-12-20T15:58:07;7.50;99.90
11089;DHT22;5598;48.648;8.908;2022-12-20T16:00:39;7.50;99.90
11089;DHT22;5598;48.648;8.908;2022-12-20T16:03:13;7.40;99.90
11089;DHT22;5598;48.648;8.908;2022-12-20T16:05:41;7.60;99.90
11089;DHT22;5598;48.648;8.908;2022-12-20T16:08:08;7.50;99.90
11089;DHT22;5598;48.648;8.908;2022-12-20T16:10:35;7.50;99.90
11089;DHT22;5598;48.648;8.908;2022-12-20T16:13:02;7.50;99.90
11089;DHT22;5598;48.648;8.908;2022-12-20T16:15:29;7.50;99.90
11089;DHT22;5598;48.648;8.908;2022-12-20T16:17:56;7.50;99.90
11089;DHT22;5598;48.648;8.908;2022-12-20T16:20:24;7.60;99.90
11089;DHT22;5598;48.648;8.908;2022-12-20T16:22:52;7.60;99.90
11089;DHT22;5598;48.648;8.908;2022-12-20T16:25:28;7.60;99.90
11089;DHT22;5598;48.648;8.908;2022-12-20T16:27:55;7.50;99.90
11089;DHT22;5598;48.648;8.908;2022-12-20T16:30:22;7.50;99.90
11089;DHT22;5598;48.648;8.908;2022-12-20T16:32:49;7.40;99.90
11089;DHT22;5598;48.648;8.908;2022-12-20T16:35:26;7.40;99.90
11089;DHT22;5598;48.648;8.908;2022-12-20T16:37:54;7.40;99.90
11089;DHT22;5598;48.648;8.908;2022-12-20T16:40:22;7.40;99.90